Site contains unofficial IBTrACS data. Visit the IBTrACS Website to access archived data.

1956 Tropical Low NOT_NAMED (1956087S18149)


IBTrACS version v04r00. Visit IBTrACS website for data access.
Please direct all questions to the IBTrACS Q and A forum

Storm track - Intensity - Wind Radii - Intensity Data - Source Data - All data

Summary Information

Storm ID 1956087S18149
Start Mar 26 23Z
Max Intensity 20 kt (Mar 27 18Z)
End Mar 28 23Z
ATCF IDs ,SH311956
Track status Best track data.

Storm track plot

Map of storm track

Intensity plots

Map of storm track

Radial wind information

No radial wind information for this storm


Position and Intensity Table

BASIN ISO_TIME_________ NATURE LAT LON USA WIND DS824 WIND TD9636 WIND
degrees north degrees east kts kts kts
SP 1956-03-26 23:00:00 NR -17.50 148.50 15
SP 1956-03-27 00:00:00 TS -17.52 148.58 15 15 15
SP 03:00:00 TS -17.65 148.77 15 15 15
SP 06:00:00 TS -17.80 148.98 15 15 15
SP 09:00:00 TS -17.98 149.23 15 15 15
SP 11:00:00 TS -18.12 149.41 15 15 15
SP 12:00:00 TS -18.19 149.50 15 15 15
SP 15:00:00 TS -18.40 149.82 17 17 16
SP 18:00:00 TS -18.62 150.12 20 20 17
SP 21:00:00 TS -18.88 150.38 20 20 19
SP 23:00:00 TS -19.02 150.48 20 20 20
SP 1956-03-28 00:00:00 TS -19.08 150.50 20 20 19
SP 03:00:00 TS -19.18 150.46 17 17 18
SP 06:00:00 TS -19.21 150.30 15 15 17
SP 09:00:00 TS -19.23 150.06 15 15 15
SP 11:00:00 TS -19.21 149.89 15 15 15
SP 12:00:00 TS -19.19 149.81 15 15 15
SP 15:00:00 TS -19.06 149.58 15 15 15
SP 18:00:00 TS -18.88 149.38 15 15 15
SP 21:00:00 NR -18.65 149.14 15
SP 23:00:00 NR -18.50 149.00 15

Source Information

Agency Information
USA bsh311956.txt
TOKYO
CMA
HKO
NEWDELHI
REUNION
BOM
NADI
WELLINGTON
DS824 s_hem.dat:682:31P
TD9636 cons_worldwide_trop_cyclone_18710101-19891231-006:Line=4662
TD9635
NEUMANN
MLC

All available IBTrACS Data

SEASON BASIN SUBBASIN ISO_TIME_________ NATURE LAT LON DIST2LAND LANDFALL IFLAG USA AGENCY USA ATCF_ID USA LAT USA LON USA WIND USA SSHS DS824 LAT DS824 LON DS824 STAGE DS824 WIND TD9636 LAT TD9636 LON TD9636 STAGE TD9636 WIND STORM SPEED STORM DIR
Year degrees north degrees east km km degrees north degrees east kts 1 degrees north degrees east kts degrees north degrees east kts kts degrees
1956 SP EA 1956-03-26 23:00:00 NR -17.50 148.50 242 242 __________O___ -1 -17.50 148.50 1 15 5 104
1956 SP EA 1956-03-27 00:00:00 TS -17.52 148.58 247 243 O________OP___ jtwc_sh SH311956 -17.50 148.60 15 -1 -17.50 148.60 TC 15 -17.54 148.56 1 15 5 120
1956 SP EA 03:00:00 TS -17.65 148.77 249 238 P________PP___ SH311956 -17.64 148.79 15 -1 -17.64 148.79 TC 15 -17.66 148.75 1 15 5 126
1956 SP EA 06:00:00 TS -17.80 148.98 245 242 O________OP___ jtwc_sh SH311956 -17.80 149.00 15 -1 -17.80 149.00 TC 15 -17.80 148.96 1 15 5 128
1956 SP EA 09:00:00 TS -17.98 149.23 242 237 P________PP___ SH311956 -17.99 149.24 15 -1 -17.99 149.24 TC 15 -17.97 149.21 1 15 6 129
1956 SP EA 11:00:00 TS -18.12 149.41 241 237 P________PO___ SH311956 -18.13 149.41 15 -1 -18.13 149.41 TC 15 -18.10 149.40 1 15 7 128
1956 SP EA 12:00:00 TS -18.19 149.50 237 231 O________OP___ jtwc_sh SH311956 -18.20 149.50 15 -1 -18.20 149.50 TC 15 -18.17 149.51 1 15 7 125
1956 SP EA 15:00:00 TS -18.40 149.82 237 228 P________PP___ SH311956 -18.39 149.81 17 -1 -18.39 149.81 TC 17 -18.41 149.84 1 16 7 126
1956 SP EA 18:00:00 TS -18.62 150.12 233 229 O________OP___ jtwc_sh SH311956 -18.60 150.10 20 -1 -18.60 150.10 TC 20 -18.66 150.16 1 17 7 132
1956 SP EA 21:00:00 TS -18.88 150.38 229 221 P________PP___ SH311956 -18.87 150.36 20 -1 -18.87 150.36 TC 20 -18.88 150.41 1 19 6 140
1956 SP EA 23:00:00 TS -19.02 150.48 229 222 P________PO___ SH311956 -19.04 150.47 20 -1 -19.04 150.47 TC 20 -19.00 150.50 1 20 5 150
1956 SP EA 1956-03-28 00:00:00 TS -19.08 150.50 222 216 O________OP___ jtwc_sh SH311956 -19.10 150.50 20 -1 -19.10 150.50 TC 20 -19.05 150.51 1 19 2 187
1956 SP EA 03:00:00 TS -19.18 150.46 216 199 P________PP___ SH311956 -19.19 150.47 17 -1 -19.19 150.47 TC 17 -19.17 150.45 1 18 2 237
1956 SP EA 06:00:00 TS -19.21 150.30 199 183 O________OP___ jtwc_sh SH311956 -19.20 150.30 15 -1 -19.20 150.30 TC 15 -19.23 150.29 1 17 4 262
1956 SP EA 09:00:00 TS -19.23 150.06 183 168 P________PP___ SH311956 -19.23 150.07 15 -1 -19.23 150.07 TC 15 -19.24 150.06 1 15 5 270
1956 SP EA 11:00:00 TS -19.21 149.89 168 161 P________PO___ SH311956 -19.22 149.89 15 -1 -19.22 149.89 TC 15 -19.20 149.90 1 15 5 280
1956 SP EA 12:00:00 TS -19.19 149.81 161 154 O________OP___ jtwc_sh SH311956 -19.20 149.80 15 -1 -19.20 149.80 TC 15 -19.17 149.82 1 15 5 298
1956 SP EA 15:00:00 TS -19.06 149.58 158 158 P________PP___ SH311956 -19.08 149.58 15 -1 -19.08 149.58 TC 15 -19.04 149.59 1 15 5 307
1956 SP EA 18:00:00 TS -18.88 149.38 167 164 O________OP___ jtwc_sh SH311956 -18.90 149.40 15 -1 -18.90 149.40 TC 15 -18.86 149.36 1 15 6 315
1956 SP EA 21:00:00 NR -18.65 149.14 177 177 __________P___ SH311956 -1 TC -18.65 149.14 1 15 6 316
1956 SP EA 23:00:00 NR -18.50 149.00 183 __________O___ SH311956 -1 TC -18.50 149.00 1 15 6 317